Terminal Aerodrome Forecast
Issued by NWS

Home | Current Version | Previous Version | Text Only | Print | Product List | Glossary On
Versions: 1 2 3 4 5 6 7 8 9 10 11 12 13 14 15 16 17 18 19 20 21 22 23 24
503
FTUS45 KPSR 281724
TAFPHX
TAF
KPHX 281724Z 2818/2918 26010G17KT P6SM SKC
      TEMPO 2818/2819 19006KT
     FM290300 24007KT P6SM SKC
     FM290800 10005KT P6SM SKC=

USA.gov is the U.S. government's official web portal to all federal, state and local government web resources and services.